Terminal Aerodrome Forecast
Issued by NWS

Home | Current Version | Previous Version | Text Only | Print | Product List | Glossary On
Versions: 1 2 3 4 5 6 7 8 9 10 11 12 13 14 15 16
298
FTUS41 KAKQ 031720
TAFPHF
TAF
KPHF 031720Z 0318/0418 33009KT P6SM SKC
     FM032300 35005KT P6SM SCT250
     FM041200 01004KT P6SM BKN200=

USA.gov is the U.S. government's official web portal to all federal, state and local government web resources and services.